createdAt,value
2022-12-08T00:01:07.671Z,100257.38
2022-12-08T00:03:35.055Z,100260.19
2022-12-08T00:06:23.626Z,100258.19
2022-12-08T00:09:08.497Z,100258.84
2022-12-08T00:11:35.058Z,100254.34
2022-12-08T00:14:01.900Z,100262.41
2022-12-08T00:16:28.369Z,100256.28
2022-12-08T00:18:54.912Z,100259.06
2022-12-08T00:21:21.390Z,100259.72
2022-12-08T00:23:47.862Z,100252.75
2022-12-08T00:26:14.384Z,100255.38
2022-12-08T00:28:40.820Z,100250.41
2022-12-08T00:31:09.215Z,100249.84
2022-12-08T00:33:36.127Z,100254.53
2022-12-08T00:36:10.572Z,100245.34
2022-12-08T00:38:37.550Z,100250.59
2022-12-08T00:41:07.395Z,100247.28
2022-12-08T00:43:33.827Z,100245.13
2022-12-08T00:46:00.337Z,100236.91
2022-12-08T00:48:26.868Z,100235.81
2022-12-08T00:50:53.320Z,100240.28
2022-12-08T00:53:19.794Z,100231.97
2022-12-08T00:55:46.261Z,100227.53
2022-12-08T00:58:12.867Z,100230.22
2022-12-08T01:00:43.193Z,100228.16
2022-12-08T01:03:10.988Z,100225.53
2022-12-08T01:05:37.666Z,100230.91
2022-12-08T01:08:08.645Z,100228.78
2022-12-08T01:10:36.647Z,100234.75
2022-12-08T01:13:03.995Z,100237.53
2022-12-08T01:15:30.477Z,100227.41
2022-12-08T01:17:56.977Z,100237.09
2022-12-08T01:20:23.496Z,100230.31
2022-12-08T01:22:50.012Z,100219.47
2022-12-08T01:25:16.508Z,100225.19
2022-12-08T01:27:42.961Z,100216.84
2022-12-08T01:30:10.033Z,100222.22
2022-12-08T01:32:36.878Z,100220.31
2022-12-08T01:35:03.524Z,100216.53
2022-12-08T01:37:30.106Z,100210.03
2022-12-08T01:39:56.562Z,100218.25
2022-12-08T01:42:23.560Z,100210.75
2022-12-08T01:44:54.694Z,100196.75
2022-12-08T01:47:22.950Z,100193.47
2022-12-08T01:49:49.458Z,100191.34
2022-12-08T01:52:29.095Z,100191.09
2022-12-08T01:55:15.282Z,100191.19
2022-12-08T01:57:47.101Z,100187.81
2022-12-08T02:00:16.195Z,100184.47
2022-12-08T02:02:54.834Z,100181.22
2022-12-08T02:09:47.968Z,100171.81
2022-12-08T02:12:15.175Z,100167.34
2022-12-08T02:14:41.586Z,100163.44
2022-12-08T02:17:47.788Z,100166.78
2022-12-08T02:20:37.980Z,100169.84
2022-12-08T02:23:41.279Z,100172.56
2022-12-08T02:26:45.094Z,100163.38
2022-12-08T02:29:20.575Z,100156.13
2022-12-08T02:32:34.187Z,100155.94
2022-12-08T02:35:14.483Z,100152.16
2022-12-08T02:37:44.081Z,100151.59
2022-12-08T02:40:21.976Z,100152.16
2022-12-08T02:43:02.760Z,100147.59
2022-12-08T02:45:38.981Z,100138.22
2022-12-08T02:48:05.878Z,100142.06
2022-12-08T02:50:32.320Z,100134.72
2022-12-08T02:52:58.834Z,100130.34
2022-12-08T02:55:30.706Z,100129.13
2022-12-08T02:58:35.486Z,100118.53
2022-12-08T03:01:29.111Z,100122.56
2022-12-08T03:04:22.556Z,100111.00
2022-12-08T03:06:58.866Z,100109.50
2022-12-08T03:09:50.231Z,100098.88
2022-12-08T03:12:32.829Z,100101.69
2022-12-08T03:15:06.914Z,100103.50
2022-12-08T03:17:33.880Z,100100.28
2022-12-08T03:20:07.604Z,100101.63
2022-12-08T03:22:34.288Z,100098.75
2022-12-08T03:25:01.422Z,100098.22
2022-12-08T03:27:31.410Z,100097.78
2022-12-08T03:30:00.201Z,100090.75
2022-12-08T03:32:30.095Z,100092.06
2022-12-08T03:35:00.685Z,100091.50
2022-12-08T03:37:28.408Z,100086.94
2022-12-08T03:39:55.471Z,100084.72
2022-12-08T03:42:22.177Z,100084.56
2022-12-08T03:44:48.648Z,100077.38
2022-12-08T03:47:15.190Z,100075.19
2022-12-08T03:49:41.629Z,100070.81
2022-12-08T03:52:08.098Z,100065.69
2022-12-08T03:54:34.544Z,100071.66
2022-12-08T03:57:01.020Z,100063.00
2022-12-08T03:59:27.512Z,100061.41
2022-12-08T04:01:54.045Z,100055.00
2022-12-08T04:04:20.677Z,100060.25
2022-12-08T04:06:47.419Z,100056.53
2022-12-08T04:09:14.807Z,100044.84
2022-12-08T04:11:41.448Z,100040.09
2022-12-08T04:14:07.928Z,100042.88
2022-12-08T04:16:34.419Z,100036.56
2022-12-08T04:19:01.015Z,100033.53
2022-12-08T04:21:27.858Z,100035.63
2022-12-08T04:24:00.838Z,100029.88
2022-12-08T04:26:28.162Z,100027.66
2022-12-08T04:28:54.690Z,100030.44
2022-12-08T04:31:21.265Z,100030.31
2022-12-08T04:33:48.669Z,100029.41
2022-12-08T04:36:15.243Z,100033.59
2022-12-08T04:38:41.645Z,100033.06
2022-12-08T04:41:08.109Z,100038.97
2022-12-08T04:43:35.533Z,100040.78
2022-12-08T04:46:02.055Z,100034.28
2022-12-08T04:48:28.571Z,100035.72
2022-12-08T04:50:55.063Z,100025.63
2022-12-08T04:53:21.624Z,100030.09
2022-12-08T04:55:49.638Z,100026.47
2022-12-08T04:58:18.551Z,100019.50
2022-12-08T05:00:45.870Z,100022.78
2022-12-08T05:03:13.353Z,100026.56
2022-12-08T05:05:40.094Z,100023.31
2022-12-08T05:08:06.605Z,100015.31
2022-12-08T05:10:33.350Z,100015.00
2022-12-08T05:13:00.559Z,100011.31
2022-12-08T05:15:27.369Z,100012.78
2022-12-08T05:17:54.031Z,100018.69
2022-12-08T05:20:20.500Z,100021.75
2022-12-08T05:22:47.104Z,100018.06
2022-12-08T05:25:13.715Z,100013.00
2022-12-08T05:27:40.190Z,100005.22
2022-12-08T05:30:07.438Z,100005.00
2022-12-08T05:32:34.140Z,100015.72
2022-12-08T05:35:00.578Z,100009.41
2022-12-08T05:37:27.047Z,100006.06
2022-12-08T05:39:53.492Z,100004.78
2022-12-08T05:42:24.603Z,100003.84
2022-12-08T05:44:51.469Z,99997.72
2022-12-08T05:47:17.904Z,100009.75
2022-12-08T05:49:44.929Z,100003.19
2022-12-08T05:52:11.347Z,100003.31
2022-12-08T05:54:38.143Z,100007.84
2022-12-08T05:57:04.729Z,99995.59
2022-12-08T05:59:31.168Z,99995.09
2022-12-08T06:01:57.768Z,100003.41
2022-12-08T06:04:24.388Z,100004.78
2022-12-08T06:06:50.846Z,99999.31
2022-12-08T06:09:17.291Z,100000.78
2022-12-08T06:11:43.808Z,99997.81
2022-12-08T06:14:11.933Z,99992.97
2022-12-08T06:16:38.572Z,99992.66
2022-12-08T06:19:05.138Z,99993.94
2022-12-08T06:21:31.704Z,99992.44
2022-12-08T06:23:58.189Z,99988.97
2022-12-08T06:26:24.825Z,99990.88
2022-12-08T06:28:51.733Z,99989.09
2022-12-08T06:31:21.179Z,99997.72
2022-12-08T06:33:47.937Z,99990.56
2022-12-08T06:36:16.346Z,99996.66
2022-12-08T06:38:43.968Z,99997.91
2022-12-08T06:41:12.055Z,99996.03
2022-12-08T06:43:38.733Z,99992.13
2022-12-08T06:46:07.680Z,99991.53
2022-12-08T06:48:34.385Z,99980.03
2022-12-08T06:51:15.147Z,99991.81
2022-12-08T06:53:42.460Z,100004.03
2022-12-08T06:56:09.427Z,100011.00
2022-12-08T06:58:36.076Z,99999.84
2022-12-08T07:01:11.100Z,100000.13
2022-12-08T07:03:38.907Z,100006.34
2022-12-08T07:06:06.475Z,100009.84
2022-12-08T07:08:34.116Z,100007.31
2022-12-08T07:11:06.595Z,100017.97
2022-12-08T07:13:33.047Z,100017.97
2022-12-08T07:15:59.442Z,100014.91
2022-12-08T07:18:25.903Z,100021.00
2022-12-08T07:20:52.350Z,100018.69
2022-12-08T07:23:19.033Z,100019.72
2022-12-08T07:25:45.945Z,100015.84
2022-12-08T07:28:18.120Z,100017.75
2022-12-08T07:30:46.620Z,100015.84
2022-12-08T07:33:13.664Z,100014.91
2022-12-08T07:35:43.821Z,100018.69
2022-12-08T07:38:20.598Z,100013.19
2022-12-08T07:40:49.916Z,100001.72
2022-12-08T07:43:16.441Z,100013.41
2022-12-08T07:45:43.450Z,100011.41
2022-12-08T07:48:13.206Z,100006.47
2022-12-08T07:50:42.168Z,100009.19
2022-12-08T07:53:09.688Z,100003.63
2022-12-08T07:55:40.902Z,100010.44
2022-12-08T07:58:10.757Z,100012.03
2022-12-08T08:00:40.631Z,100018.47
2022-12-08T08:03:13.239Z,100017.63
2022-12-08T08:05:43.145Z,100012.88
2022-12-08T08:08:14.182Z,100016.88
2022-12-08T08:10:41.107Z,100017.22
2022-12-08T08:13:11.051Z,100020.06
2022-12-08T08:15:37.686Z,100025.22
2022-12-08T08:18:07.627Z,100027.84
2022-12-08T08:20:34.135Z,100032.50
2022-12-08T08:23:07.893Z,100030.06
2022-12-08T08:25:37.127Z,100023.00
2022-12-08T08:28:05.997Z,100024.38
2022-12-08T08:30:32.574Z,100017.63
2022-12-08T08:33:08.462Z,100016.69
2022-12-08T08:35:35.066Z,100016.91
2022-12-08T08:38:01.895Z,100018.03
2022-12-08T08:40:28.461Z,100018.78
2022-12-08T08:42:55.200Z,100014.69
2022-12-08T08:45:21.900Z,100025.72
2022-12-08T08:47:48.422Z,100017.38
2022-12-08T08:50:15.052Z,100023.19
2022-12-08T08:52:41.743Z,100018.66
2022-12-08T08:55:11.365Z,100020.50
2022-12-08T08:57:38.238Z,100023.28
2022-12-08T09:00:10.324Z,100021.31
2022-12-08T09:02:38.436Z,100017.19
2022-12-08T09:05:09.373Z,100014.53
2022-12-08T09:07:36.388Z,100008.78
2022-12-08T09:10:03.725Z,100010.22
2022-12-08T09:12:30.888Z,100007.03
2022-12-08T09:14:57.733Z,100013.09
2022-12-08T09:17:27.707Z,100007.50
2022-12-08T09:19:55.015Z,100001.53
2022-12-08T09:22:30.643Z,99997.03
2022-12-08T09:25:00.772Z,99999.91
2022-12-08T09:27:31.231Z,99997.50
2022-12-08T09:29:59.921Z,100002.25
2022-12-08T09:32:32.889Z,99996.41
2022-12-08T09:34:59.845Z,99998.13
2022-12-08T09:37:26.721Z,99992.38
2022-12-08T09:39:59.973Z,99981.28
2022-12-08T09:43:07.539Z,99987.28
2022-12-08T09:45:41.552Z,99988.97
2022-12-08T09:48:19.308Z,99985.41
2022-12-08T09:50:53.781Z,99980.78
2022-12-08T09:53:32.082Z,99985.88
2022-12-08T09:56:05.471Z,99982.06
2022-12-08T09:58:53.172Z,99978.47
2022-12-08T10:01:23.510Z,99970.63
2022-12-08T10:03:59.780Z,99972.69
2022-12-08T10:06:47.907Z,99970.84
2022-12-08T10:09:23.464Z,99973.31
2022-12-08T10:12:21.934Z,99979.75
2022-12-08T10:15:22.280Z,99976.31
2022-12-08T10:17:59.016Z,99971.19
2022-12-08T10:20:31.496Z,99978.38
2022-12-08T10:23:34.491Z,99972.84
2022-12-08T10:26:20.236Z,99970.88
2022-12-08T10:28:56.425Z,99968.03
2022-12-08T10:31:27.721Z,99964.53
2022-12-08T10:34:14.104Z,99963.47
2022-12-08T10:36:58.364Z,99954.59
2022-12-08T10:39:35.231Z,99954.78
2022-12-08T10:42:07.844Z,99956.00
2022-12-08T10:44:50.100Z,99954.34
2022-12-08T10:47:36.265Z,99955.78
2022-12-08T10:50:07.660Z,99960.69
2022-12-08T10:52:38.914Z,99957.03
2022-12-08T10:55:17.764Z,99947.22
2022-12-08T10:57:44.550Z,99947.41
2022-12-08T11:00:17.394Z,99947.00
2022-12-08T11:03:00.241Z,99942.34
2022-12-08T11:05:34.311Z,99938.59
2022-12-08T11:08:03.452Z,99944.63
2022-12-08T11:11:11.367Z,99935.47
2022-12-08T11:13:43.964Z,99928.31
2022-12-08T11:16:15.142Z,99936.53
2022-12-08T11:18:44.747Z,99933.47
2022-12-08T11:21:17.535Z,99930.84
2022-12-08T11:23:52.023Z,99923.06
2022-12-08T11:26:36.993Z,99925.34
2022-12-08T11:29:04.555Z,99922.97
2022-12-08T11:31:40.876Z,99914.69
2022-12-08T11:34:19.593Z,99920.34
2022-12-08T11:36:54.229Z,99919.91
2022-12-08T11:39:22.346Z,99919.63
2022-12-08T11:41:58.912Z,99919.41
2022-12-08T11:44:58.907Z,99916.63
2022-12-08T11:47:35.670Z,99927.09
2022-12-08T11:50:34.119Z,99916.94
2022-12-08T11:53:01.725Z,99924.59
2022-12-08T11:55:49.917Z,99925.28
2022-12-08T11:58:23.947Z,99919.47
2022-12-08T12:00:51.017Z,99926.75
2022-12-08T12:04:13.699Z,99925.84
2022-12-08T12:07:19.488Z,99929.09
2022-12-08T12:10:09.520Z,99922.72
2022-12-08T12:13:20.834Z,99924.94
2022-12-08T12:16:43.639Z,99930.84
2022-12-08T12:19:32.648Z,99924.94
2022-12-08T12:22:29.585Z,99925.09
2022-12-08T12:25:02.757Z,99933.63
2022-12-08T12:27:37.479Z,99926.50
2022-12-08T12:30:25.374Z,99927.72
2022-12-08T12:32:54.054Z,99927.50
2022-12-08T12:35:43.700Z,99932.19
2022-12-08T12:38:57.682Z,99931.00
2022-12-08T12:41:47.358Z,99919.22
2022-12-08T12:44:13.780Z,99918.63
2022-12-08T12:46:42.212Z,99912.16
2022-12-08T12:49:39.942Z,99922.69
2022-12-08T12:52:34.147Z,99919.13
2022-12-08T12:55:00.723Z,99915.53
2022-12-08T12:57:40.126Z,99920.19
2022-12-08T13:00:13.143Z,99924.19
2022-12-08T13:02:49.829Z,99921.66
2022-12-08T13:05:28.077Z,99923.28
2022-12-08T13:07:58.363Z,99920.72
2022-12-08T13:10:35.094Z,99913.63
2022-12-08T13:13:10.690Z,99906.16
2022-12-08T13:15:40.041Z,99910.25
2022-12-08T13:18:16.482Z,99912.44
2022-12-08T13:20:48.145Z,99914.34
2022-12-08T13:23:37.258Z,99911.34
2022-12-08T13:26:20.171Z,99910.03
2022-12-08T13:28:58.779Z,99911.94
2022-12-08T13:31:50.657Z,99907.28
2022-12-08T13:34:57.953Z,99911.50
2022-12-08T13:37:53.945Z,99907.03
2022-12-08T13:40:32.139Z,99909.78
2022-12-08T13:43:25.689Z,99920.13
2022-12-08T13:50:23.075Z,99918.31
2022-12-08T13:57:28.835Z,99917.72
2022-12-08T14:00:04.781Z,99914.38
2022-12-08T14:02:47.053Z,99914.34
2022-12-08T14:05:18.633Z,99910.28
2022-12-08T14:07:47.818Z,99912.44
2022-12-08T14:10:40.698Z,99920.13
2022-12-08T14:13:12.186Z,99925.28
2022-12-08T14:15:40.248Z,99917.09
2022-12-08T14:18:23.442Z,99928.53
2022-12-08T14:23:50.375Z,99928.28
2022-12-08T14:26:17.931Z,99930.91
2022-12-08T14:28:45.167Z,99927.34
2022-12-08T14:31:14.121Z,99935.72
2022-12-08T14:33:41.347Z,99934.63
2022-12-08T14:36:10.307Z,99927.44
2022-12-08T14:38:36.969Z,99938.13
2022-12-08T14:41:08.928Z,99941.63
2022-12-08T14:43:36.306Z,99944.13
2022-12-08T14:46:21.082Z,99942.44
2022-12-08T14:48:47.769Z,99940.75
2022-12-08T14:51:23.215Z,99941.78
2022-12-08T14:53:58.792Z,99944.59
2022-12-08T14:56:52.325Z,99951.44
2022-12-08T14:59:32.469Z,99949.63
2022-12-08T15:02:29.272Z,99954.69
2022-12-08T15:04:58.699Z,99949.50
2022-12-08T15:07:30.302Z,99947.50
2022-12-08T15:10:17.984Z,99948.94
2022-12-08T15:13:22.161Z,99952.31
2022-12-08T15:15:51.883Z,99941.38
2022-12-08T15:18:38.042Z,99954.00
2022-12-08T15:21:09.158Z,99944.38
2022-12-08T15:23:48.472Z,99954.00
2022-12-08T15:26:23.973Z,99949.91
2022-12-08T15:28:58.412Z,99954.69
2022-12-08T15:31:25.116Z,99959.97
2022-12-08T15:33:51.928Z,99962.38
2022-12-08T15:36:21.897Z,99967.31
2022-12-08T15:38:48.520Z,99980.88
2022-12-08T15:41:15.489Z,99978.38
2022-12-08T15:43:45.422Z,99977.63
2022-12-08T15:46:16.803Z,99970.78
2022-12-08T15:48:46.851Z,99971.50
2022-12-08T15:52:11.068Z,99968.25
2022-12-08T15:54:44.032Z,99959.75
2022-12-08T15:58:17.103Z,99966.81
2022-12-08T16:00:50.417Z,99967.91
2022-12-08T16:09:17.291Z,99978.97
2022-12-08T16:12:07.876Z,99982.06
2022-12-08T16:17:22.704Z,99978.59
2022-12-08T16:19:49.482Z,99982.16
2022-12-08T16:25:18.367Z,99981.09
2022-12-08T16:28:17.247Z,99992.34
2022-12-08T16:30:33.065Z,99986.84
2022-12-08T16:32:59.665Z,100005.47
2022-12-08T16:35:26.189Z,99997.16
2022-12-08T16:37:55.364Z,99997.19
2022-12-08T16:40:25.069Z,99996.22
2022-12-08T16:42:51.763Z,100003.06
2022-12-08T16:45:21.179Z,100003.25
2022-12-08T16:47:56.673Z,100002.31
2022-12-08T16:50:29.398Z,100002.31
2022-12-08T16:53:07.398Z,100002.25
2022-12-08T16:55:35.281Z,100006.53
2022-12-08T16:58:07.918Z,100002.00
2022-12-08T17:00:38.247Z,100008.34
2022-12-08T17:03:11.769Z,100007.22
2022-12-08T17:05:52.493Z,100013.06
2022-12-08T17:08:19.327Z,100013.09
2022-12-08T17:11:06.150Z,100016.50
2022-12-08T17:13:33.316Z,100015.13
2022-12-08T17:16:00.083Z,100008.41
2022-12-08T17:18:30.139Z,100016.31
2022-12-08T17:20:56.944Z,100012.78
2022-12-08T17:23:23.637Z,100021.63
2022-12-08T17:26:00.904Z,100023.34
2022-12-08T17:28:58.443Z,100021.19
2022-12-08T17:31:16.147Z,100018.72
2022-12-08T17:33:42.966Z,100022.59
2022-12-08T17:36:13.712Z,100026.06
2022-12-08T17:38:40.577Z,100031.56
2022-12-08T17:41:08.906Z,100033.91
2022-12-08T17:43:36.230Z,100025.03
2022-12-08T17:46:03.246Z,100012.66
2022-12-08T17:48:30.548Z,100022.81
2022-12-08T17:50:57.183Z,100027.38
2022-12-08T17:53:23.845Z,100027.16
2022-12-08T17:55:55.538Z,100030.72
2022-12-08T17:58:23.202Z,100029.81
2022-12-08T18:00:50.891Z,100028.44
2022-12-08T18:03:19.189Z,100029.69
2022-12-08T18:05:49.519Z,100036.41
2022-12-08T18:10:59.318Z,100036.34
2022-12-08T18:13:26.142Z,100035.47
2022-12-08T18:16:06.392Z,100036.13
2022-12-08T18:18:34.774Z,100039.22
2022-12-08T18:21:04.557Z,100042.69
2022-12-08T18:23:33.894Z,100029.84
2022-12-08T18:26:00.653Z,100029.94
2022-12-08T18:28:27.384Z,100034.78
2022-12-08T18:30:54.058Z,100032.88
2022-12-08T18:33:20.845Z,100029.94
2022-12-08T18:35:47.449Z,100036.78
2022-12-08T18:38:17.266Z,100040.75
2022-12-08T18:40:43.890Z,100038.41
2022-12-08T18:43:10.655Z,100038.22
2022-12-08T18:45:39.499Z,100041.94
2022-12-08T18:48:07.093Z,100045.41
2022-12-08T18:50:33.871Z,100047.28
2022-12-08T18:53:00.485Z,100040.31
2022-12-08T18:55:27.081Z,100046.44
2022-12-08T18:57:53.796Z,100047.16
2022-12-08T19:00:21.070Z,100051.94
2022-12-08T19:02:47.672Z,100050.53
2022-12-08T19:05:15.427Z,100055.00
2022-12-08T19:07:42.862Z,100059.31
2022-12-08T19:10:10.378Z,100076.22
2022-12-08T19:12:37.148Z,100066.38
2022-12-08T19:15:04.216Z,100068.09
2022-12-08T19:17:31.014Z,100078.84
2022-12-08T19:19:57.459Z,100076.94
2022-12-08T19:22:23.994Z,100077.88
2022-12-08T19:24:50.465Z,100079.47
2022-12-08T19:27:17.001Z,100083.03
2022-12-08T19:29:43.424Z,100080.19
2022-12-08T19:32:09.873Z,100087.72
2022-12-08T19:34:36.413Z,100085.06
2022-12-08T19:37:03.070Z,100097.81
2022-12-08T19:39:48.116Z,100096.97
2022-12-08T19:42:35.807Z,100102.59
2022-12-08T19:45:15.333Z,100091.00
2022-12-08T19:47:42.365Z,100103.88
2022-12-08T19:50:33.250Z,100100.78
2022-12-08T19:53:00.782Z,100099.19
2022-12-08T19:55:27.455Z,100097.53
2022-12-08T19:57:54.649Z,100100.78
2022-12-08T20:00:21.315Z,100098.38
2022-12-08T20:02:47.935Z,100103.00
2022-12-08T20:05:15.117Z,100101.94
2022-12-08T20:07:41.956Z,100102.16
2022-12-08T20:10:16.036Z,100099.44
2022-12-08T20:12:42.583Z,100110.59
2022-12-08T20:15:10.217Z,100110.41
2022-12-08T20:17:38.215Z,100112.38
2022-12-08T20:20:07.709Z,100116.50
2022-12-08T20:22:34.358Z,100104.91
2022-12-08T20:25:01.249Z,100106.50
2022-12-08T20:27:28.955Z,100103.31
2022-12-08T20:29:55.388Z,100107.53
2022-12-08T20:32:21.861Z,100108.50
2022-12-08T20:34:48.283Z,100112.91
2022-12-08T20:37:14.760Z,100117.66
2022-12-08T20:39:41.320Z,100119.47
2022-12-08T20:42:12.764Z,100112.16
2022-12-08T20:44:43.270Z,100123.03
2022-12-08T20:47:11.146Z,100122.41
2022-12-08T20:49:37.852Z,100120.47
2022-12-08T20:52:04.648Z,100130.19
2022-12-08T20:54:31.145Z,100130.50
2022-12-08T20:56:57.826Z,100128.91
2022-12-08T20:59:26.355Z,100126.75
2022-12-08T21:01:53.930Z,100130.34
2022-12-08T21:04:20.801Z,100133.09
2022-12-08T21:06:47.795Z,100128.78
2022-12-08T21:09:14.511Z,100135.34
2022-12-08T21:11:42.461Z,100136.28
2022-12-08T21:14:09.110Z,100135.41
2022-12-08T21:16:35.878Z,100143.84
2022-12-08T21:19:02.784Z,100148.06
2022-12-08T21:21:29.496Z,100148.25
2022-12-08T21:23:56.165Z,100147.41
2022-12-08T21:26:26.011Z,100144.66
2022-12-08T21:28:54.717Z,100145.69
2022-12-08T21:31:21.934Z,100139.97
2022-12-08T21:33:49.180Z,100148.53
2022-12-08T21:36:19.152Z,100145.38
2022-12-08T21:38:46.917Z,100157.63
2022-12-08T21:41:36.932Z,100159.09
2022-12-08T21:44:04.811Z,100149.09
2022-12-08T21:46:31.694Z,100167.22
2022-12-08T21:48:58.326Z,100163.72
2022-12-08T21:51:25.176Z,100164.47
2022-12-08T21:53:51.707Z,100165.22
2022-12-08T21:56:18.365Z,100163.63
2022-12-08T21:58:44.964Z,100165.53
2022-12-08T22:01:12.110Z,100169.69
2022-12-08T22:03:39.894Z,100167.59
2022-12-08T22:06:12.359Z,100167.59
2022-12-08T22:08:39.360Z,100164.25
2022-12-08T22:11:08.494Z,100166.50
2022-12-08T22:13:36.747Z,100172.88
2022-12-08T22:16:06.123Z,100166.56
2022-12-08T22:18:34.267Z,100166.97
2022-12-08T22:21:01.219Z,100163.28
2022-12-08T22:23:28.492Z,100164.97
2022-12-08T22:26:00.084Z,100165.91
2022-12-08T22:28:27.993Z,100164.81
2022-12-08T22:30:54.475Z,100164.50
2022-12-08T22:33:21.207Z,100164.00
2022-12-08T22:36:08.086Z,100163.03
2022-12-08T22:38:36.431Z,100169.25
2022-12-08T22:41:05.213Z,100165.66
2022-12-08T22:43:32.893Z,100167.34
2022-12-08T22:45:59.875Z,100161.34
2022-12-08T22:48:26.382Z,100162.38
2022-12-08T22:50:59.667Z,100161.56
2022-12-08T22:53:26.380Z,100167.13
2022-12-08T22:55:52.904Z,100165.41
2022-12-08T22:58:19.962Z,100169.94
2022-12-08T23:00:46.496Z,100171.75
2022-12-08T23:03:13.090Z,100170.88
2022-12-08T23:05:40.593Z,100175.41
2022-12-08T23:08:08.806Z,100170.22
2022-12-08T23:10:35.838Z,100166.03
2022-12-08T23:13:04.157Z,100163.38
2022-12-08T23:15:31.199Z,100165.66
2022-12-08T23:17:57.995Z,100163.78
2022-12-08T23:20:24.647Z,100160.56
2022-12-08T23:22:51.199Z,100160.25
2022-12-08T23:25:18.560Z,100155.09
2022-12-08T23:27:45.684Z,100157.97
2022-12-08T23:30:12.683Z,100160.81
2022-12-08T23:32:39.312Z,100147.09
2022-12-08T23:35:06.725Z,100151.03
2022-12-08T23:37:33.170Z,100152.44
2022-12-08T23:39:59.626Z,100152.44
2022-12-08T23:42:26.427Z,100157.44
2022-12-08T23:44:52.925Z,100163.66
2022-12-08T23:47:19.402Z,100164.97
2022-12-08T23:49:45.922Z,100158.28
2022-12-08T23:52:13.767Z,100159.97
2022-12-08T23:54:40.504Z,100154.25
2022-12-08T23:57:07.867Z,100160.22
2022-12-08T23:59:34.315Z,100162.97
